Time;durP1;ratioP1;P1;durP2;ratioP2;P2;SDS_P1;SDS_P2;PMS_P1;PMS_P2;Temp;Humidity;BMP_temperature;BMP_pressure;BME280_temperature;BME280_humidity;BME280_pressure;Samples;Min_cycle;Max_cycle;Signal;HPM_P1;HPM_P2
2022/05/20 20:13:28;;;;;;;8.30;2.50;;;;;;;24.06;37.96;99701.55;2506864;78;25465;-78
2022/05/20 20:17:03;;;;;;;2.65;2.08;;;;;;;24.10;38.06;99695.16;2473102;79;25698;-78
2022/05/20 20:20:42;;;;;;;5.17;2.20;;;;;;;24.11;38.16;99680.47;2422012;79;25665;-79
2022/05/20 20:28:14;;;;;;;8.40;2.92;;;;;;;24.12;38.11;99673.34;2318692;83;25609;-76
2022/05/20 20:31:52;;;;;;;10.70;2.75;;;;;;;24.03;38.08;99666.16;2325863;83;25648;-80
2022/05/20 20:35:18;;;;;;;7.87;2.77;;;;;;;24.00;38.28;99667.63;2364511;81;25720;-78
2022/05/20 20:38:52;;;;;;;9.73;3.08;;;;;;;23.99;38.34;99659.69;2361063;83;25720;-77
2022/05/20 20:42:31;;;;;;;10.60;3.45;;;;;;;23.98;38.42;99661.48;2261631;85;26703;-81
2022/05/20 20:46:07;;;;;;;12.88;3.33;;;;;;;23.91;38.37;99661.36;2230691;87;25859;-77
2022/05/20 20:49:33;;;;;;;16.80;2.90;;;;;;;23.84;38.38;99640.39;2213791;87;25740;-77
2022/05/20 20:53:10;;;;;;;10.32;3.27;;;;;;;23.77;38.36;99645.11;2225900;87;25632;-76
2022/05/20 20:56:50;;;;;;;9.90;3.22;;;;;;;23.72;38.30;99643.95;2198808;87;25801;-81
2022/05/20 21:00:23;;;;;;;8.78;2.72;;;;;;;23.70;38.38;99630.34;2221140;86;25826;-76
2022/05/20 21:03:49;;;;;;;5.37;2.83;;;;;;;23.69;38.35;99621.50;2227376;85;25733;-76
2022/05/20 21:07:37;;;;;;;9.33;2.77;;;;;;;23.63;38.51;99611.07;2276328;83;25330;-75
2022/05/20 21:11:10;;;;;;;14.90;4.53;;;;;;;23.53;38.69;99617.24;2257091;85;26525;-80
2022/05/20 21:14:51;;;;;;;12.20;2.98;;;;;;;23.44;38.82;99612.77;2240640;86;25720;-80
2022/05/20 21:18:52;;;;;;;;;;;;;;;;;;;;;
2022/05/20 21:22:25;;;;;;;6.30;3.08;;;;;;;23.32;38.98;99622.09;2247456;87;25968;-76
2022/05/20 21:26:32;;;;;;;7.40;3.15;;;;;;;23.31;39.02;99625.70;2224826;85;25724;-80
2022/05/20 21:33:55;;;;;;;8.58;3.45;;;;;;;23.21;39.38;99629.19;2114253;91;25741;-84
2022/05/20 21:37:36;;;;;;;10.03;3.72;;;;;;;23.13;39.57;99614.48;2135501;91;25793;-78
2022/05/20 21:41:20;;;;;;;12.23;4.03;;;;;;;23.08;39.78;99613.33;2131356;90;26543;-81
2022/05/20 21:45:02;;;;;;;8.15;2.80;;;;;;;23.02;39.85;99613.13;2096342;91;25936;-81
2022/05/20 21:48:41;;;;;;;;;;;;;;;;;;;;;
2022/05/20 21:52:35;;;;;;;9.45;3.55;;;;;;;22.99;40.00;99609.72;2130764;91;25990;-81
2022/05/20 22:00:04;;;;;;;8.33;3.02;;;;;;;22.84;40.51;99603.17;2078982;93;25831;-80
2022/05/20 22:11:27;;;;;;;11.75;3.20;;;;;;;22.71;40.93;99581.52;2162449;90;25675;-80
2022/05/20 22:15:16;;;;;;;4.70;3.50;;;;;;;22.74;41.06;99586.72;2123869;92;25814;-79
2022/05/20 22:19:01;;;;;;;9.18;3.45;;;;;;;22.72;41.11;99570.45;2144876;90;25893;-81
2022/05/20 22:22:44;;;;;;;14.63;3.67;;;;;;;22.67;41.31;99556.00;2158034;90;25747;-79
2022/05/20 22:26:26;;;;;;;6.80;3.60;;;;;;;22.59;41.42;99556.31;2165378;90;25764;-80
2022/05/20 22:29:58;;;;;;;4.60;3.22;;;;;;;22.58;41.53;99540.44;2175179;89;25932;-81
2022/05/20 22:33:43;;;;;;;11.48;4.35;;;;;;;22.55;41.68;99531.27;2177137;90;25819;-80
2022/05/20 22:37:23;;;;;;;8.15;3.25;;;;;;;22.57;41.59;99522.28;2175082;89;25871;-79
2022/05/20 22:40:57;;;;;;;7.10;3.92;;;;;;;22.60;41.77;99515.99;2168039;90;25877;-80
2022/05/20 22:44:28;;;;;;;8.23;3.98;;;;;;;22.52;41.91;99499.04;2185924;88;25756;-80
2022/05/20 22:48:09;;;;;;;4.55;3.37;;;;;;;22.52;41.99;99500.83;2220770;87;25841;-80
2022/05/20 22:59:14;;;;;;;8.83;3.35;;;;;;;22.44;42.21;99480.33;2124402;91;25770;-80
2022/05/20 23:02:43;;;;;;;6.03;3.85;;;;;;;22.44;42.29;99466.59;2106793;92;25677;-79
2022/05/20 23:06:26;;;;;;;6.42;3.47;;;;;;;22.45;42.21;99448.42;2151399;88;25749;-81
2022/05/20 23:10:01;;;;;;;5.15;3.67;;;;;;;22.51;42.22;99452.60;2177874;89;25990;-80
2022/05/20 23:13:41;;;;;;;4.45;3.50;;;;;;;22.51;42.19;99443.30;2172312;88;25788;-79
2022/05/20 23:17:15;;;;;;;5.25;3.65;;;;;;;22.51;42.20;99444.20;2176003;89;26373;-81
2022/05/20 23:20:46;;;;;;;9.88;3.42;;;;;;;22.48;42.34;99436.35;2177037;89;25667;-80
2022/05/20 23:24:45;;;;;;;;;;;;;;;;;;;;;
2022/05/20 23:28:21;;;;;;;6.92;4.22;;;;;;;22.47;42.31;99405.38;2290309;84;25658;-80
2022/05/20 23:32:02;;;;;;;7.03;4.17;;;;;;;22.46;42.31;99394.37;2297282;84;26515;-80
2022/05/20 23:35:46;;;;;;;6.53;3.55;;;;;;;22.46;42.34;99390.85;2296154;85;25692;-81
2022/05/20 23:39:24;;;;;;;9.30;3.90;;;;;;;22.45;42.37;99390.46;2294436;84;26121;-80
2022/05/20 23:43:10;;;;;;;;;;;;;;;;;;;;;
2022/05/20 23:46:37;;;;;;;10.18;4.28;;;;;;;22.37;42.65;99380.98;2293417;85;25658;-78
2022/05/20 23:50:32;;;;;;;7.17;4.10;;;;;;;22.27;42.85;99373.47;2303362;84;25762;-80
2022/05/20 23:54:14;;;;;;;8.88;3.65;;;;;;;22.19;43.10;99372.45;2303050;84;25690;-82
